createdAt,value
2018-07-26T00:00:12.520Z,99848.05
2018-07-26T00:02:40.418Z,99841.98
2018-07-26T00:05:08.084Z,99840.33
2018-07-26T00:07:36.110Z,99848.73
2018-07-26T00:10:05.180Z,99841.80
2018-07-26T00:12:32.785Z,99843.46
2018-07-26T00:17:34.803Z,99855.27
2018-07-26T00:20:02.372Z,99854.44
2018-07-26T00:22:29.997Z,99852.52
2018-07-26T00:24:57.691Z,99849.13
2018-07-26T00:27:25.301Z,99843.41
2018-07-26T00:29:52.947Z,99852.73
2018-07-26T00:32:20.552Z,99848.62
2018-07-26T00:34:48.177Z,99851.64
2018-07-26T00:37:15.765Z,99851.04
2018-07-26T00:39:43.348Z,99856.02
2018-07-26T00:42:10.903Z,99862.38
2018-07-26T00:44:38.500Z,99868.92
2018-07-26T00:47:06.076Z,99861.52
2018-07-26T00:49:33.670Z,99859.80
2018-07-26T00:52:01.274Z,99867.06
2018-07-26T00:54:29.189Z,99869.38
2018-07-26T00:56:56.773Z,99867.72
2018-07-26T01:01:59.483Z,99869.91
2018-07-26T01:04:27.108Z,99862.73
2018-07-26T01:06:54.685Z,99863.72
2018-07-26T01:09:22.270Z,99865.61
2018-07-26T01:11:50.553Z,99868.52
2018-07-26T01:14:18.170Z,99868.56
2018-07-26T01:16:45.836Z,99866.66
2018-07-26T01:19:13.350Z,99866.48
2018-07-26T01:21:40.946Z,99861.18
2018-07-26T01:24:08.594Z,99869.64
2018-07-26T01:26:36.225Z,99864.48
2018-07-26T01:29:03.883Z,99860.82
2018-07-26T01:31:31.540Z,99865.47
2018-07-26T01:33:59.185Z,99868.59
2018-07-26T01:36:26.793Z,99871.36
2018-07-26T01:38:54.471Z,99871.69
2018-07-26T01:41:22.075Z,99873.40
2018-07-26T01:44:08.009Z,99866.23
2018-07-26T01:46:35.667Z,99865.00
2018-07-26T01:49:03.299Z,99866.16
2018-07-26T01:51:30.960Z,99864.37
2018-07-26T01:53:58.597Z,99863.70
2018-07-26T01:56:26.267Z,99869.48
2018-07-26T01:58:53.949Z,99862.95
2018-07-26T02:01:21.553Z,99850.56
2018-07-26T02:03:49.202Z,99870.69
2018-07-26T02:06:16.801Z,99867.33
2018-07-26T02:08:44.415Z,99870.08
2018-07-26T02:11:12.114Z,99872.50
2018-07-26T02:13:39.743Z,99871.79
2018-07-26T02:16:07.403Z,99872.45
2018-07-26T02:18:35.033Z,99874.19
2018-07-26T02:21:02.665Z,99874.30
2018-07-26T02:23:30.360Z,99863.27
2018-07-26T02:25:57.953Z,99867.31
2018-07-26T02:28:25.556Z,99869.27
2018-07-26T02:30:53.236Z,99864.94
2018-07-26T02:33:20.908Z,99868.44
2018-07-26T02:35:48.553Z,99865.98
2018-07-26T02:38:16.210Z,99867.33
2018-07-26T02:40:43.789Z,99865.16
2018-07-26T02:43:11.780Z,99871.52
2018-07-26T02:45:39.362Z,99874.28
2018-07-26T02:48:07.258Z,99868.02
2018-07-26T02:50:34.950Z,99868.23
2018-07-26T02:53:02.539Z,99873.55
2018-07-26T02:55:30.217Z,99874.55
2018-07-26T02:57:58.076Z,99868.59
2018-07-26T03:00:25.681Z,99869.47
2018-07-26T03:02:53.357Z,99874.13
2018-07-26T03:05:20.972Z,99872.30
2018-07-26T03:07:48.605Z,99877.16
2018-07-26T03:10:16.218Z,99873.50
2018-07-26T03:12:44.103Z,99871.34
2018-07-26T03:15:11.790Z,99880.15
2018-07-26T03:17:39.436Z,99874.62
2018-07-26T03:20:07.068Z,99886.52
2018-07-26T03:22:34.638Z,99883.56
2018-07-26T03:25:02.268Z,99884.56
2018-07-26T03:27:29.850Z,99877.11
2018-07-26T03:29:57.536Z,99883.11
2018-07-26T03:32:27.056Z,99878.78
2018-07-26T03:34:55.222Z,99877.12
2018-07-26T03:37:22.820Z,99878.11
2018-07-26T03:39:50.358Z,99875.08
2018-07-26T03:42:17.972Z,99879.91
2018-07-26T03:44:45.624Z,99877.41
2018-07-26T03:47:13.312Z,99879.73
2018-07-26T03:49:40.958Z,99884.69
2018-07-26T03:52:08.648Z,99884.02
2018-07-26T03:54:36.258Z,99887.31
2018-07-26T03:57:04.144Z,99889.84
2018-07-26T03:59:31.747Z,99894.06
2018-07-26T04:01:59.407Z,99899.88
2018-07-26T04:04:28.003Z,99899.44
2018-07-26T04:06:55.657Z,99894.67
2018-07-26T04:09:23.368Z,99895.11
2018-07-26T04:11:50.993Z,99898.01
2018-07-26T04:14:18.657Z,99895.11
2018-07-26T04:16:46.185Z,99898.05
2018-07-26T04:19:15.503Z,99898.09
2018-07-26T04:21:43.053Z,99899.64
2018-07-26T04:24:10.642Z,99899.58
2018-07-26T04:26:38.251Z,99905.01
2018-07-26T04:29:06.006Z,99908.14
2018-07-26T04:31:34.007Z,99906.34
2018-07-26T04:34:01.661Z,99901.48
2018-07-26T04:36:29.337Z,99901.98
2018-07-26T04:38:56.945Z,99903.25
2018-07-26T04:41:24.537Z,99912.83
2018-07-26T04:43:52.189Z,99912.48
2018-07-26T04:46:19.817Z,99918.09
2018-07-26T04:48:47.499Z,99913.48
2018-07-26T04:51:15.119Z,99915.50
2018-07-26T04:53:42.729Z,99915.16
2018-07-26T04:56:10.396Z,99916.64
2018-07-26T04:58:38.035Z,99918.80
2018-07-26T05:01:05.704Z,99925.52
2018-07-26T05:03:33.305Z,99929.86
2018-07-26T05:06:00.919Z,99922.91
2018-07-26T05:08:28.549Z,99924.61
2018-07-26T05:10:56.158Z,99921.89
2018-07-26T05:13:23.715Z,99926.23
2018-07-26T05:15:51.336Z,99932.16
2018-07-26T05:18:18.980Z,99935.73
2018-07-26T05:20:46.632Z,99935.84
2018-07-26T05:23:14.269Z,99939.64
2018-07-26T05:25:41.853Z,99935.06
2018-07-26T05:28:09.428Z,99935.17
2018-07-26T05:30:37.060Z,99934.91
2018-07-26T05:33:04.911Z,99933.91
2018-07-26T05:35:33.232Z,99936.69
2018-07-26T05:38:00.878Z,99943.40
2018-07-26T05:40:28.513Z,99950.30
2018-07-26T05:42:56.231Z,99950.53
2018-07-26T05:45:24.058Z,99948.59
2018-07-26T05:47:51.639Z,99949.41
2018-07-26T05:50:19.265Z,99955.19
2018-07-26T05:52:46.894Z,99951.98
2018-07-26T05:55:14.599Z,99951.84
2018-07-26T05:57:43.079Z,99947.55
2018-07-26T06:00:13.121Z,99951.16
2018-07-26T06:02:41.200Z,99958.20
2018-07-26T06:05:10.110Z,99954.24
2018-07-26T06:07:37.820Z,99951.48
2018-07-26T06:10:06.651Z,99952.13
2018-07-26T06:12:35.119Z,99953.81
2018-07-26T06:15:03.803Z,99949.89
2018-07-26T06:17:31.409Z,99953.50
2018-07-26T06:19:58.957Z,99961.61
2018-07-26T06:22:26.589Z,99963.48
2018-07-26T06:24:54.258Z,99962.91
2018-07-26T06:27:21.945Z,99968.41
2018-07-26T06:29:49.559Z,99958.09
2018-07-26T06:32:17.180Z,99963.66
2018-07-26T06:34:44.841Z,99961.55
2018-07-26T06:37:12.473Z,99962.78
2018-07-26T06:39:40.033Z,99965.00
2018-07-26T06:42:09.224Z,99967.27
2018-07-26T06:44:36.880Z,99971.77
2018-07-26T06:47:05.250Z,99971.53
2018-07-26T06:49:32.816Z,99971.14
2018-07-26T06:52:01.134Z,99981.38
2018-07-26T06:54:28.888Z,99979.31
2018-07-26T06:56:56.526Z,99972.83
2018-07-26T06:59:24.132Z,99971.52
2018-07-26T07:01:51.772Z,99973.91
2018-07-26T07:04:19.469Z,99979.27
2018-07-26T07:06:47.086Z,99985.53
2018-07-26T07:09:14.794Z,99984.09
2018-07-26T07:11:42.445Z,99988.57
2018-07-26T07:14:10.279Z,99987.52
2018-07-26T07:16:37.948Z,99985.33
2018-07-26T07:19:05.717Z,99996.52
2018-07-26T07:21:33.485Z,99988.60
2018-07-26T07:24:01.254Z,99989.16
2018-07-26T07:26:28.961Z,99991.50
2018-07-26T07:28:56.685Z,99994.50
2018-07-26T07:31:24.451Z,99988.50
2018-07-26T07:33:52.163Z,99991.76
2018-07-26T07:36:19.841Z,99993.78
2018-07-26T07:38:47.550Z,99991.15
2018-07-26T07:41:15.259Z,100003.25
2018-07-26T07:43:42.889Z,99995.05
2018-07-26T07:46:10.624Z,100004.23
2018-07-26T07:48:38.274Z,99998.51
2018-07-26T07:51:06.039Z,99999.46
2018-07-26T07:53:33.775Z,100003.91
2018-07-26T07:56:01.693Z,99998.43
2018-07-26T07:58:29.386Z,99995.52
2018-07-26T08:00:57.102Z,99993.70
2018-07-26T08:03:25.066Z,99993.42
2018-07-26T08:05:53.024Z,99986.53
2018-07-26T08:08:20.744Z,99995.26
2018-07-26T08:10:48.566Z,99994.20
2018-07-26T08:13:16.290Z,99991.55
2018-07-26T08:15:43.949Z,100000.21
2018-07-26T08:18:11.739Z,100000.95
2018-07-26T08:20:39.469Z,99998.42
2018-07-26T08:23:07.424Z,99998.77
2018-07-26T08:25:35.364Z,99996.27
2018-07-26T08:28:03.038Z,99994.03
2018-07-26T08:30:30.853Z,99991.14
2018-07-26T08:32:58.619Z,100001.14
2018-07-26T08:35:26.314Z,99992.95
2018-07-26T08:37:54.020Z,99993.61
2018-07-26T08:40:21.899Z,100000.80
2018-07-26T08:42:49.762Z,99986.91
2018-07-26T08:45:17.444Z,99984.85
2018-07-26T08:47:45.375Z,99991.67
2018-07-26T08:50:13.211Z,99995.44
2018-07-26T08:52:40.899Z,99988.20
2018-07-26T08:55:08.643Z,99989.94
2018-07-26T08:57:36.412Z,99979.17
2018-07-26T09:00:05.439Z,99986.19
2018-07-26T09:02:33.154Z,99981.14
2018-07-26T09:05:00.785Z,99973.91
2018-07-26T09:07:29.203Z,99977.63
2018-07-26T09:09:56.991Z,99971.05
2018-07-26T09:12:24.832Z,99973.30
2018-07-26T09:14:52.506Z,99977.87
2018-07-26T09:17:20.342Z,99973.23
2018-07-26T09:19:47.968Z,99977.31
2018-07-26T09:22:15.620Z,99980.14
2018-07-26T09:24:43.348Z,99974.38
2018-07-26T09:27:12.408Z,99971.97
2018-07-26T09:29:40.592Z,99967.52
2018-07-26T09:32:08.182Z,99960.02
2018-07-26T09:34:35.970Z,99967.52
2018-07-26T09:37:03.700Z,99966.10
2018-07-26T09:39:31.471Z,99969.85
2018-07-26T09:41:59.197Z,99954.51
2018-07-26T09:44:26.914Z,99952.51
2018-07-26T09:46:54.644Z,99952.30
2018-07-26T09:49:22.339Z,99948.89
2018-07-26T09:51:49.999Z,99953.15
2018-07-26T09:54:17.666Z,99949.45
2018-07-26T09:56:45.329Z,99952.89
2018-07-26T09:59:13.010Z,99942.33
2018-07-26T10:01:41.149Z,99949.89
2018-07-26T10:04:09.383Z,99944.27
2018-07-26T10:06:37.169Z,99936.22
2018-07-26T10:09:08.043Z,99942.02
2018-07-26T10:11:36.350Z,99938.25
2018-07-26T10:14:04.396Z,99936.75
2018-07-26T10:16:32.041Z,99930.98
2018-07-26T10:18:59.756Z,99935.44
2018-07-26T10:21:27.458Z,99934.59
2018-07-26T10:23:55.145Z,99939.23
2018-07-26T10:26:23.113Z,99931.35
2018-07-26T10:28:50.902Z,99931.77
2018-07-26T10:31:18.563Z,99928.94
2018-07-26T10:33:46.433Z,99925.87
2018-07-26T10:36:14.197Z,99936.39
2018-07-26T10:38:41.945Z,99931.54
2018-07-26T10:41:09.713Z,99930.18
2018-07-26T10:43:37.414Z,99929.86
2018-07-26T10:46:05.250Z,99923.90
2018-07-26T10:48:32.926Z,99921.15
2018-07-26T10:51:00.786Z,99904.28
2018-07-26T10:53:28.441Z,99922.38
2018-07-26T10:55:56.110Z,99913.94
2018-07-26T10:58:23.787Z,99919.66
2018-07-26T11:00:51.688Z,99916.97
2018-07-26T11:03:19.822Z,99908.78
2018-07-26T11:05:47.482Z,99917.16
2018-07-26T11:08:15.930Z,99901.42
2018-07-26T11:10:43.564Z,99910.10
2018-07-26T11:13:11.338Z,99908.14
2018-07-26T11:15:39.068Z,99911.60
2018-07-26T11:18:06.671Z,99911.38
2018-07-26T11:20:34.274Z,99906.25
2018-07-26T11:23:01.865Z,99901.96
2018-07-26T11:25:29.562Z,99897.06
2018-07-26T11:27:57.249Z,99901.67
2018-07-26T11:30:24.967Z,99900.61
2018-07-26T11:32:54.501Z,99894.61
2018-07-26T11:35:22.295Z,99888.64
2018-07-26T11:37:49.931Z,99900.27
2018-07-26T11:40:17.511Z,99893.97
2018-07-26T11:42:45.616Z,99887.44
2018-07-26T11:45:13.219Z,99891.23
2018-07-26T11:47:40.841Z,99892.59
2018-07-26T11:50:09.838Z,99883.62
2018-07-26T11:52:37.450Z,99877.16
2018-07-26T11:55:05.217Z,99875.30
2018-07-26T11:57:32.872Z,99874.20
2018-07-26T12:00:00.893Z,99809.70
2018-07-26T12:02:28.567Z,99866.05
2018-07-26T12:04:56.169Z,99868.73
2018-07-26T12:07:24.262Z,99869.77
2018-07-26T12:09:51.907Z,99861.43
2018-07-26T12:12:19.529Z,99869.70
2018-07-26T12:14:47.166Z,99858.96
2018-07-26T12:17:14.808Z,99856.23
2018-07-26T12:19:42.501Z,99856.95
2018-07-26T12:22:10.031Z,99858.25
2018-07-26T12:24:37.650Z,99857.88
2018-07-26T12:27:05.330Z,99849.75
2018-07-26T12:29:32.973Z,99851.29
2018-07-26T12:32:00.761Z,99846.63
2018-07-26T12:34:28.413Z,99849.99
2018-07-26T12:36:56.373Z,99844.33
2018-07-26T12:39:24.094Z,99841.24
2018-07-26T12:41:51.707Z,99840.83
2018-07-26T12:44:19.293Z,99841.53
2018-07-26T12:46:47.078Z,99830.83
2018-07-26T12:49:14.679Z,99837.24
2018-07-26T12:51:42.277Z,99827.66
2018-07-26T12:54:09.901Z,99821.22
2018-07-26T12:56:37.553Z,99820.64
2018-07-26T12:59:05.255Z,99821.88
2018-07-26T13:01:33.013Z,99821.20
2018-07-26T13:04:00.814Z,99828.86
2018-07-26T13:06:28.492Z,99822.17
2018-07-26T13:08:56.122Z,99817.34
2018-07-26T13:11:23.792Z,99824.82
2018-07-26T13:13:51.516Z,99823.34
2018-07-26T13:16:19.294Z,99825.99
2018-07-26T13:18:46.982Z,99817.37
2018-07-26T13:21:14.735Z,99812.71
2018-07-26T13:23:42.378Z,99814.80
2018-07-26T13:26:10.354Z,99814.89
2018-07-26T13:28:37.916Z,99816.82
2018-07-26T13:31:06.049Z,99816.44
2018-07-26T13:33:33.701Z,99822.24
2018-07-26T13:36:01.308Z,99815.41
2018-07-26T13:38:28.967Z,99818.57
2018-07-26T13:40:56.512Z,99816.14
2018-07-26T13:43:24.153Z,99810.91
2018-07-26T13:45:51.729Z,99810.11
2018-07-26T13:48:19.420Z,99813.23
2018-07-26T13:50:47.065Z,99810.61
2018-07-26T13:53:14.800Z,99806.63
2018-07-26T13:55:42.500Z,99810.92
2018-07-26T13:58:10.267Z,99808.89
2018-07-26T14:00:38.010Z,99803.52
2018-07-26T14:03:05.796Z,99805.08
2018-07-26T14:05:33.586Z,99801.66
2018-07-26T14:08:01.325Z,99804.12
2018-07-26T14:10:29.260Z,99803.09
2018-07-26T14:15:31.735Z,99787.71
2018-07-26T14:17:59.691Z,99790.52
2018-07-26T14:20:27.495Z,99785.80
2018-07-26T14:22:55.221Z,99786.25
2018-07-26T14:25:22.974Z,99781.25
2018-07-26T14:27:50.843Z,99778.95
2018-07-26T14:30:18.549Z,99785.10
2018-07-26T14:32:46.261Z,99785.25
2018-07-26T14:35:14.039Z,99780.16
2018-07-26T14:37:41.832Z,99778.09
2018-07-26T14:40:09.573Z,99782.86
2018-07-26T14:42:37.421Z,99782.61
2018-07-26T14:45:05.523Z,99783.28
2018-07-26T14:47:33.297Z,99779.12
2018-07-26T14:50:01.070Z,99777.11
2018-07-26T14:52:28.672Z,99768.62
2018-07-26T14:54:56.544Z,99766.14
2018-07-26T14:57:24.196Z,99766.61
2018-07-26T14:59:51.900Z,99768.25
2018-07-26T15:02:19.488Z,99769.03
2018-07-26T15:04:47.113Z,99759.92
2018-07-26T15:07:14.770Z,99765.81
2018-07-26T15:09:42.676Z,99765.76
2018-07-26T15:12:10.608Z,99767.64
2018-07-26T15:14:38.337Z,99767.70
2018-07-26T15:17:06.122Z,99770.11
2018-07-26T15:19:33.867Z,99762.62
2018-07-26T15:22:01.631Z,99763.95
2018-07-26T15:24:30.685Z,99760.49
2018-07-26T15:26:58.303Z,99760.46
2018-07-26T15:29:25.957Z,99753.52
2018-07-26T15:31:53.627Z,99753.86
2018-07-26T15:34:21.257Z,99754.09
2018-07-26T15:36:48.821Z,99756.13
2018-07-26T15:39:16.435Z,99755.41
2018-07-26T15:41:44.700Z,99758.22
2018-07-26T15:44:13.754Z,99752.95
2018-07-26T15:46:41.591Z,99754.72
2018-07-26T15:49:09.553Z,99754.05
2018-07-26T15:51:37.338Z,99755.64
2018-07-26T15:54:05.049Z,99746.23
2018-07-26T15:56:32.755Z,99744.31
2018-07-26T15:59:00.387Z,99750.70
2018-07-26T16:01:28.040Z,99748.27
2018-07-26T16:03:55.799Z,99752.50
2018-07-26T16:06:23.462Z,99746.16
2018-07-26T16:08:51.146Z,99740.25
2018-07-26T16:11:18.796Z,99748.41
2018-07-26T16:13:46.468Z,99753.41
2018-07-26T16:16:14.099Z,99751.78
2018-07-26T16:18:41.730Z,99757.22
2018-07-26T16:21:09.474Z,99758.35
2018-07-26T16:23:37.129Z,99751.50
2018-07-26T16:26:05.097Z,99746.06
2018-07-26T16:28:32.851Z,99745.64
2018-07-26T16:31:00.545Z,99745.38
2018-07-26T16:33:28.217Z,99751.27
2018-07-26T16:35:55.989Z,99748.97
2018-07-26T16:38:23.726Z,99747.02
2018-07-26T16:40:51.577Z,99755.17
2018-07-26T16:43:19.293Z,99754.83
2018-07-26T16:45:46.995Z,99748.95
2018-07-26T16:48:14.682Z,99759.06
2018-07-26T16:50:42.365Z,99756.38
2018-07-26T16:53:10.029Z,99755.05
2018-07-26T16:55:37.941Z,99753.47
2018-07-26T16:58:05.761Z,99748.33
2018-07-26T17:00:33.700Z,99759.31
2018-07-26T17:03:01.468Z,99758.12
2018-07-26T17:05:29.258Z,99753.69
2018-07-26T17:07:57.034Z,99755.06
2018-07-26T17:10:24.757Z,99754.83
2018-07-26T17:12:52.465Z,99746.45
2018-07-26T17:15:20.258Z,99757.03
2018-07-26T17:17:48.026Z,99759.72
2018-07-26T17:20:15.680Z,99766.23
2018-07-26T17:22:43.476Z,99772.36
2018-07-26T17:25:11.311Z,99770.00
2018-07-26T17:27:38.934Z,99765.41
2018-07-26T17:30:06.647Z,99768.98
2018-07-26T17:32:34.423Z,99765.36
2018-07-26T17:35:02.073Z,99771.27
2018-07-26T17:43:22.809Z,99777.44
2018-07-26T17:46:09.725Z,99781.14
2018-07-26T17:48:37.519Z,99779.11
2018-07-26T17:51:05.410Z,99779.73
2018-07-26T17:53:33.175Z,99786.19
2018-07-26T17:56:00.992Z,99783.45
2018-07-26T17:58:28.652Z,99786.52
2018-07-26T18:00:56.232Z,99784.86
2018-07-26T18:03:24.178Z,99787.19
2018-07-26T18:05:51.889Z,99782.66
2018-07-26T18:08:19.752Z,99790.73
2018-07-26T18:10:47.596Z,99785.54
2018-07-26T18:13:15.176Z,99789.94
2018-07-26T18:15:42.779Z,99787.11
2018-07-26T18:18:10.401Z,99782.67
2018-07-26T18:20:37.983Z,99784.98
2018-07-26T18:23:05.715Z,99782.70
2018-07-26T18:25:33.464Z,99780.19
2018-07-26T18:28:01.044Z,99785.65
2018-07-26T18:30:28.713Z,99786.54
2018-07-26T18:32:56.412Z,99785.00
2018-07-26T18:35:24.201Z,99779.63
2018-07-26T18:37:51.977Z,99786.75
2018-07-26T18:40:19.685Z,99791.98
2018-07-26T18:42:47.477Z,99791.14
2018-07-26T18:45:15.499Z,99797.19
2018-07-26T18:47:43.218Z,99799.61
2018-07-26T18:50:11.179Z,99805.58
2018-07-26T18:52:39.046Z,99812.34
2018-07-26T18:55:08.605Z,99817.42
2018-07-26T18:57:36.385Z,99817.06
2018-07-26T19:00:06.801Z,99824.34
2018-07-26T19:02:34.667Z,99822.36
2018-07-26T19:05:03.457Z,99829.34
2018-07-26T19:07:31.198Z,99822.78
2018-07-26T19:09:58.817Z,99825.98
2018-07-26T19:12:26.572Z,99822.36
2018-07-26T19:14:54.219Z,99833.94
2018-07-26T19:17:21.840Z,99834.70
2018-07-26T19:19:49.494Z,99834.59
2018-07-26T19:22:17.295Z,99838.09
2018-07-26T19:24:44.991Z,99842.66
2018-07-26T19:27:12.840Z,99847.11
2018-07-26T19:29:40.528Z,99843.50
2018-07-26T19:32:08.326Z,99844.03
2018-07-26T19:34:36.005Z,99855.85
2018-07-26T19:37:03.661Z,99853.78
2018-07-26T19:39:31.358Z,99860.75
2018-07-26T19:41:59.032Z,99857.66
2018-07-26T19:44:26.696Z,99853.16
2018-07-26T19:46:54.334Z,99854.11
2018-07-26T19:49:22.131Z,99855.30
2018-07-26T19:51:49.962Z,99857.30
2018-07-26T19:54:17.675Z,99851.80
2018-07-26T19:56:45.383Z,99848.98
2018-07-26T19:59:13.028Z,99847.80
2018-07-26T20:01:40.751Z,99851.80
2018-07-26T20:04:08.803Z,99848.87
2018-07-26T20:06:36.553Z,99856.47
2018-07-26T20:09:07.934Z,99843.25
2018-07-26T20:11:35.642Z,99841.53
2018-07-26T20:14:03.519Z,99848.15
2018-07-26T20:16:31.183Z,99847.70
2018-07-26T20:18:58.931Z,99848.17
2018-07-26T20:21:26.711Z,99850.43
2018-07-26T20:23:54.367Z,99850.64
2018-07-26T20:26:22.147Z,99850.05
2018-07-26T20:28:49.824Z,99853.28
2018-07-26T20:31:17.530Z,99856.42
2018-07-26T20:33:45.186Z,99855.08
2018-07-26T20:36:12.876Z,99852.25
2018-07-26T20:38:40.554Z,99863.16
2018-07-26T20:41:08.250Z,99861.05
2018-07-26T20:43:35.927Z,99864.98
2018-07-26T20:46:03.682Z,99868.94
2018-07-26T20:48:31.450Z,99870.95
2018-07-26T20:50:59.223Z,99865.41
2018-07-26T20:53:27.434Z,99869.09
2018-07-26T20:55:55.159Z,99871.92
2018-07-26T20:58:22.786Z,99863.61
2018-07-26T21:00:50.630Z,99872.17
2018-07-26T21:03:18.364Z,99872.00
2018-07-26T21:05:46.126Z,99876.38
2018-07-26T21:08:13.928Z,99877.66
2018-07-26T21:10:41.590Z,99869.44
2018-07-26T21:13:09.670Z,99873.92
2018-07-26T21:15:37.349Z,99867.51
2018-07-26T21:18:05.072Z,99875.27
2018-07-26T21:20:32.734Z,99870.13
2018-07-26T21:23:00.376Z,99869.59
2018-07-26T21:25:28.076Z,99870.90
2018-07-26T21:27:55.699Z,99871.70
2018-07-26T21:30:23.333Z,99868.88
2018-07-26T21:32:50.978Z,99865.14
2018-07-26T21:35:18.597Z,99866.34
2018-07-26T21:37:46.209Z,99877.77
2018-07-26T21:40:13.919Z,99870.91
2018-07-26T21:42:41.498Z,99869.55
2018-07-26T21:45:09.194Z,99869.41
2018-07-26T21:47:36.821Z,99872.25
2018-07-26T21:50:04.753Z,99877.77
2018-07-26T21:52:32.412Z,99876.07
2018-07-26T21:55:00.109Z,99876.50
2018-07-26T21:57:27.971Z,99874.80
2018-07-26T21:59:55.554Z,99873.38
2018-07-26T22:02:23.243Z,99874.04
2018-07-26T22:04:50.875Z,99870.77
2018-07-26T22:07:18.561Z,99877.56
2018-07-26T22:09:46.138Z,99875.63
2018-07-26T22:12:13.718Z,99875.70
2018-07-26T22:14:41.332Z,99871.51
2018-07-26T22:17:09.032Z,99874.89
2018-07-26T22:19:36.648Z,99869.72
2018-07-26T22:22:04.440Z,99877.25
2018-07-26T22:24:32.024Z,99877.25
2018-07-26T22:26:59.660Z,99869.55
2018-07-26T22:29:27.370Z,99868.91
2018-07-26T22:31:54.999Z,99875.28
2018-07-26T22:34:22.581Z,99875.41
2018-07-26T22:36:50.178Z,99875.17
2018-07-26T22:39:17.816Z,99874.25
2018-07-26T22:41:45.409Z,99873.42
2018-07-26T22:44:13.065Z,99869.02
2018-07-26T22:46:40.639Z,99863.13
2018-07-26T22:49:08.226Z,99873.98
2018-07-26T22:51:35.850Z,99870.16
2018-07-26T22:54:03.852Z,99872.56
2018-07-26T22:56:31.898Z,99872.46
2018-07-26T22:58:59.518Z,99879.83
2018-07-26T23:01:27.084Z,99879.87
2018-07-26T23:03:54.662Z,99882.50
2018-07-26T23:06:22.251Z,99881.59
2018-07-26T23:08:49.878Z,99880.20
2018-07-26T23:11:17.465Z,99879.88
2018-07-26T23:13:45.037Z,99874.58
2018-07-26T23:16:12.572Z,99876.65
2018-07-26T23:18:40.066Z,99878.50
2018-07-26T23:21:07.585Z,99877.89
2018-07-26T23:23:35.185Z,99874.90
2018-07-26T23:26:02.712Z,99874.51
2018-07-26T23:28:30.252Z,99865.13
2018-07-26T23:30:57.869Z,99870.78
2018-07-26T23:33:25.458Z,99875.20
2018-07-26T23:35:53.015Z,99866.57
2018-07-26T23:38:20.596Z,99868.62
2018-07-26T23:40:48.170Z,99868.23
2018-07-26T23:43:15.812Z,99861.09
2018-07-26T23:45:43.412Z,99859.95
2018-07-26T23:48:11.000Z,99862.05
2018-07-26T23:50:38.566Z,99854.48
2018-07-26T23:53:06.122Z,99851.02
2018-07-26T23:55:33.671Z,99852.14
2018-07-26T23:58:01.411Z,99845.62
